FDMS

Matsapha Airport

Manzini, Swaziland
METAR FDMS 120900Z 06007KT 9999 FEW035 25/18 Q1015 NOSIG
Observed Flight Rules
Dec-12 @ 09:00 UTC (an hour ago) Visual Flight Rules
Wind Visibility Clouds
60° at 7 knots 10,000+ meters
  • Few at 3,500' AGL
Temperatures Readings
Current 25°C / 77°F
Dewpoint 18°C / 64°F
Humidity 65%
Altimeter 29.97" Hg
Pressure 1015 hPa
Elevation 641
METAR FDMS 120900Z 06007KT 9999 FEW035 25/18 Q1015 NOSIG
Observed Flight Rules
Dec-12 @ 09:00 UTC
(an hour ago)
VFR
Wind Visibility
60° at 7 knots 10,000+ meters
Clouds
  • Few at 3,500' AGL
Temperature Dewpoint
25°C / 77°F 18°C / 64°F
Humidity Altimeter Pressure
65% 29.97" Hg 1015 hPa